createdAt,value
2018-06-24T00:00:45.517Z,81.23
2018-06-24T00:01:45.425Z,81.89
2018-06-24T00:02:45.364Z,81.23
2018-06-24T00:03:45.237Z,82.08
2018-06-24T00:04:45.143Z,81.79
2018-06-24T00:05:45.053Z,81.60
2018-06-24T00:06:44.962Z,81.98
2018-06-24T00:07:44.897Z,81.13
2018-06-24T00:08:44.769Z,81.41
2018-06-24T00:09:44.680Z,82.18
2018-06-24T00:10:44.684Z,81.41
2018-06-24T00:11:44.497Z,81.51
2018-06-24T00:12:44.431Z,82.08
2018-06-24T00:13:44.338Z,81.70
2018-06-24T00:14:44.224Z,82.08
2018-06-24T00:15:44.121Z,81.89
2018-06-24T00:16:44.026Z,81.98
2018-06-24T00:17:44.061Z,82.46
2018-06-24T00:18:43.840Z,81.79
2018-06-24T00:19:43.747Z,81.98
2018-06-24T00:20:43.654Z,81.51
2018-06-24T00:21:43.564Z,81.03
2018-06-24T00:22:43.508Z,81.79
2018-06-24T00:23:43.375Z,82.08
2018-06-24T00:24:43.386Z,81.13
2018-06-24T00:25:43.188Z,81.60
2018-06-24T00:26:43.094Z,81.98
2018-06-24T00:27:43.038Z,82.65
2018-06-24T00:28:42.911Z,81.89
2018-06-24T00:29:42.814Z,82.08
2018-06-24T00:30:42.727Z,82.56
2018-06-24T00:31:42.724Z,82.08
2018-06-24T00:32:42.567Z,82.56
2018-06-24T00:33:42.445Z,82.37
2018-06-24T00:34:42.370Z,81.79
2018-06-24T00:35:42.259Z,81.98
2018-06-24T00:36:42.164Z,81.89
2018-06-24T00:37:42.074Z,82.18
2018-06-24T00:38:42.101Z,81.89
2018-06-24T00:39:41.886Z,81.98
2018-06-24T00:40:41.790Z,82.27
2018-06-24T00:41:41.700Z,81.66
2018-06-24T00:42:41.607Z,82.08
2018-06-24T00:43:41.547Z,82.46
2018-06-24T00:44:41.418Z,81.85
2018-06-24T00:45:41.420Z,82.70
2018-06-24T00:46:41.231Z,82.46
2018-06-24T00:47:41.144Z,82.37
2018-06-24T00:48:41.079Z,82.46
2018-06-24T00:49:40.953Z,82.56
2018-06-24T00:50:40.861Z,83.03
2018-06-24T00:51:40.770Z,82.37
2018-06-24T00:52:40.766Z,82.65
2018-06-24T00:53:40.611Z,82.37
2018-06-24T00:54:40.494Z,82.46
2018-06-24T00:55:40.393Z,83.13
2018-06-24T00:56:40.303Z,82.56
2018-06-24T00:57:40.208Z,82.61
2018-06-24T00:58:40.147Z,82.08
2018-06-24T00:59:40.115Z,81.89
2018-06-24T01:00:39.926Z,82.46
2018-06-24T01:01:39.834Z,82.65
2018-06-24T01:02:39.746Z,82.56
2018-06-24T01:03:39.682Z,82.75
2018-06-24T01:04:39.557Z,83.03
2018-06-24T01:05:39.460Z,83.61
2018-06-24T01:06:39.483Z,82.80
2018-06-24T01:07:39.276Z,83.32
2018-06-24T01:08:39.217Z,82.93
2018-06-24T01:09:39.089Z,82.46
2018-06-24T01:10:38.997Z,82.42
2018-06-24T01:11:38.904Z,83.13
2018-06-24T01:12:38.810Z,82.56
2018-06-24T01:13:38.841Z,83.03
2018-06-24T01:14:38.621Z,83.13
2018-06-24T01:15:38.531Z,82.75
2018-06-24T01:16:38.440Z,82.93
2018-06-24T01:17:38.344Z,82.46
2018-06-24T01:18:38.283Z,83.03
2018-06-24T01:19:38.285Z,82.56
2018-06-24T01:20:38.067Z,82.65
2018-06-24T01:21:37.972Z,82.75
2018-06-24T01:22:37.879Z,82.37
2018-06-24T01:23:37.817Z,83.22
2018-06-24T01:24:37.696Z,83.22
2018-06-24T01:25:37.601Z,83.22
2018-06-24T01:26:37.510Z,82.75
2018-06-24T01:27:37.415Z,83.22
2018-06-24T01:28:37.352Z,83.22
2018-06-24T01:29:37.226Z,82.27
2018-06-24T01:30:37.138Z,82.18
2018-06-24T01:31:37.043Z,83.22
2018-06-24T01:32:36.953Z,82.56
2018-06-24T01:33:36.887Z,82.84
2018-06-24T01:34:36.786Z,82.84
2018-06-24T01:35:36.671Z,83.22
2018-06-24T01:36:36.575Z,83.03
2018-06-24T01:37:36.486Z,83.22
2018-06-24T01:38:36.425Z,83.41
2018-06-24T01:39:36.298Z,82.93
2018-06-24T01:40:36.203Z,83.22
2018-06-24T01:41:36.114Z,83.41
2018-06-24T01:42:36.020Z,83.13
2018-06-24T01:43:35.960Z,83.32
2018-06-24T01:44:35.834Z,83.32
2018-06-24T01:45:35.741Z,83.22
2018-06-24T01:46:35.650Z,83.61
2018-06-24T01:47:35.621Z,83.22
2018-06-24T01:48:35.461Z,83.98
2018-06-24T01:49:35.804Z,83.94
2018-06-24T01:50:35.276Z,84.13
2018-06-24T01:51:35.184Z,84.04
2018-06-24T01:52:35.089Z,84.27
2018-06-24T01:53:35.003Z,84.46
2018-06-24T01:54:34.938Z,84.27
2018-06-24T01:55:34.810Z,83.89
2018-06-24T01:56:34.718Z,83.80
2018-06-24T01:57:34.625Z,84.17
2018-06-24T01:58:34.537Z,84.65
2018-06-24T01:59:34.470Z,84.84
2018-06-24T02:00:34.347Z,84.27
2018-06-24T02:01:34.252Z,83.89
2018-06-24T02:02:34.160Z,83.80
2018-06-24T02:03:34.066Z,83.98
2018-06-24T02:04:34.008Z,83.70
2018-06-24T02:05:33.881Z,83.98
2018-06-24T02:06:33.787Z,84.08
2018-06-24T02:07:33.694Z,84.27
2018-06-24T02:08:33.601Z,83.80
2018-06-24T02:09:33.546Z,84.08
2018-06-24T02:10:33.419Z,84.36
2018-06-24T02:11:33.325Z,84.27
2018-06-24T02:12:33.232Z,84.27
2018-06-24T02:13:33.136Z,84.75
2018-06-24T02:14:33.076Z,84.75
2018-06-24T02:15:32.953Z,84.56
2018-06-24T02:16:32.856Z,84.99
2018-06-24T02:17:32.767Z,85.28
2018-06-24T02:18:32.673Z,85.13
2018-06-24T02:19:32.611Z,85.89
2018-06-24T02:20:32.486Z,85.13
2018-06-24T02:21:32.390Z,85.41
2018-06-24T02:22:32.303Z,84.65
2018-06-24T02:23:32.210Z,85.32
2018-06-24T02:24:32.145Z,85.03
2018-06-24T02:25:32.020Z,85.32
2018-06-24T02:26:31.926Z,85.32
2018-06-24T02:27:31.839Z,85.56
2018-06-24T02:28:31.742Z,85.51
2018-06-24T02:29:31.680Z,85.70
2018-06-24T02:30:31.559Z,86.08
2018-06-24T02:31:31.464Z,86.08
2018-06-24T02:32:31.369Z,85.70
2018-06-24T02:33:31.278Z,85.51
2018-06-24T02:34:31.217Z,85.99
2018-06-24T02:35:31.090Z,85.85
2018-06-24T02:36:30.995Z,86.32
2018-06-24T02:37:30.915Z,86.04
2018-06-24T02:38:30.806Z,86.22
2018-06-24T02:39:30.753Z,86.32
2018-06-24T02:40:30.627Z,86.42
2018-06-24T02:41:30.533Z,86.84
2018-06-24T02:42:30.439Z,86.27
2018-06-24T02:43:30.353Z,86.08
2018-06-24T02:44:30.281Z,86.42
2018-06-24T02:45:30.161Z,86.08
2018-06-24T02:46:30.071Z,85.94
2018-06-24T02:47:29.974Z,86.46
2018-06-24T02:48:29.880Z,86.36
2018-06-24T02:49:29.788Z,85.70
2018-06-24T02:50:29.724Z,86.99
2018-06-24T02:51:29.602Z,86.75
2018-06-24T02:52:29.514Z,86.51
2018-06-24T02:53:29.448Z,87.60
2018-06-24T02:54:29.325Z,86.70
2018-06-24T02:55:29.260Z,86.99
2018-06-24T02:56:29.135Z,86.32
2018-06-24T02:57:29.043Z,86.13
2018-06-24T02:58:29.056Z,86.80
2018-06-24T02:59:28.862Z,87.13
2018-06-24T03:00:28.796Z,86.80
2018-06-24T03:01:28.670Z,86.18
2018-06-24T03:02:28.577Z,86.46
2018-06-24T03:03:28.488Z,86.27
2018-06-24T03:04:28.393Z,86.65
2018-06-24T03:05:28.329Z,86.65
2018-06-24T03:06:28.205Z,86.51
2018-06-24T03:07:28.112Z,87.56
2018-06-24T03:08:28.035Z,86.36
2018-06-24T03:09:27.926Z,86.55
2018-06-24T03:10:27.862Z,86.46
2018-06-24T03:11:27.745Z,86.55
2018-06-24T03:12:27.743Z,86.84
2018-06-24T03:13:27.554Z,87.60
2018-06-24T03:14:27.459Z,87.32
2018-06-24T03:15:27.396Z,87.41
2018-06-24T03:16:27.278Z,87.85
2018-06-24T03:17:27.180Z,87.60
2018-06-24T03:18:27.085Z,87.79
2018-06-24T03:19:27.090Z,87.13
2018-06-24T03:20:26.930Z,87.23
2018-06-24T03:21:26.810Z,87.41
2018-06-24T03:22:26.716Z,87.41
2018-06-24T03:23:26.621Z,87.60
2018-06-24T03:24:26.527Z,87.32
2018-06-24T03:25:26.464Z,87.98
2018-06-24T03:26:26.433Z,88.08
2018-06-24T03:27:26.252Z,87.60
2018-06-24T03:28:26.155Z,88.08
2018-06-24T03:29:26.062Z,87.98
2018-06-24T03:30:26.003Z,87.32
2018-06-24T03:31:25.876Z,87.98
2018-06-24T03:32:25.781Z,87.79
2018-06-24T03:33:25.789Z,87.98
2018-06-24T03:34:25.595Z,88.60
2018-06-24T03:35:25.536Z,88.08
2018-06-24T03:36:25.408Z,88.46
2018-06-24T03:37:25.318Z,87.89
2018-06-24T03:38:25.239Z,87.98
2018-06-24T03:39:25.134Z,88.65
2018-06-24T03:40:25.164Z,88.27
2018-06-24T03:41:24.943Z,87.85
2018-06-24T03:42:24.849Z,88.51
2018-06-24T03:43:24.757Z,88.08
2018-06-24T03:44:24.663Z,88.89
2018-06-24T03:45:24.603Z,88.46
2018-06-24T03:46:24.480Z,87.98
2018-06-24T03:47:24.480Z,88.89
2018-06-24T03:48:24.304Z,89.18
2018-06-24T03:49:24.197Z,88.93
2018-06-24T03:50:24.141Z,89.56
2018-06-24T03:51:24.014Z,89.94
2018-06-24T03:52:23.920Z,89.61
2018-06-24T03:53:23.824Z,89.37
2018-06-24T03:54:23.826Z,89.56
2018-06-24T03:55:23.670Z,89.75
2018-06-24T03:56:23.545Z,90.17
2018-06-24T03:57:23.454Z,90.46
2018-06-24T03:58:23.360Z,90.13
2018-06-24T03:59:23.273Z,89.75
2018-06-24T04:00:23.205Z,89.65
2018-06-24T04:01:23.174Z,90.51
2018-06-24T04:02:22.988Z,90.08
2018-06-24T04:03:22.899Z,90.70
2018-06-24T04:04:22.799Z,90.32
2018-06-24T04:05:22.741Z,89.75
2018-06-24T04:06:22.615Z,89.56
2018-06-24T04:07:22.520Z,89.61
2018-06-24T04:08:22.523Z,90.17
2018-06-24T04:09:22.335Z,89.75
2018-06-24T04:10:22.276Z,90.22
2018-06-24T04:11:22.148Z,89.75
2018-06-24T04:12:22.058Z,90.13
2018-06-24T04:13:21.960Z,90.22
2018-06-24T04:14:21.867Z,90.61
2018-06-24T04:15:21.904Z,90.17
2018-06-24T04:16:21.683Z,90.08
2018-06-24T04:17:21.590Z,89.79
2018-06-24T04:18:21.545Z,90.17
2018-06-24T04:19:21.400Z,90.17
2018-06-24T04:20:21.311Z,90.46
2018-06-24T04:21:21.343Z,90.94
2018-06-24T04:22:21.122Z,90.65
2018-06-24T04:23:21.028Z,91.03
2018-06-24T04:24:20.937Z,91.31
2018-06-24T04:25:20.848Z,91.03
2018-06-24T04:26:20.781Z,91.60
2018-06-24T04:27:20.658Z,91.46
2018-06-24T04:28:20.562Z,91.79
2018-06-24T04:29:20.472Z,91.13
2018-06-24T04:30:20.379Z,92.08
2018-06-24T04:31:20.320Z,91.79
2018-06-24T04:32:20.190Z,92.18
2018-06-24T04:33:20.101Z,91.99
2018-06-24T04:34:20.005Z,92.08
2018-06-24T04:35:19.917Z,92.27
2018-06-24T04:36:19.849Z,92.18
2018-06-24T04:37:19.724Z,92.18
2018-06-24T04:38:19.633Z,92.27
2018-06-24T04:39:19.542Z,92.36
2018-06-24T04:40:19.447Z,92.46
2018-06-24T04:41:19.385Z,92.36
2018-06-24T04:42:19.261Z,92.74
2018-06-24T04:43:19.165Z,92.65
2018-06-24T04:44:19.074Z,92.46
2018-06-24T04:45:18.981Z,93.03
2018-06-24T04:46:18.921Z,93.03
2018-06-24T04:47:18.797Z,93.41
2018-06-24T04:48:18.703Z,93.70
2018-06-24T04:49:18.609Z,93.51
2018-06-24T04:50:18.520Z,92.84
2018-06-24T04:51:18.455Z,93.70
2018-06-24T04:52:18.329Z,93.79
2018-06-24T04:53:18.234Z,93.98
2018-06-24T04:54:18.144Z,94.08
2018-06-24T04:55:18.053Z,94.84
2018-06-24T04:56:17.988Z,94.27
2018-06-24T04:57:17.863Z,94.46
2018-06-24T04:58:17.770Z,94.84
2018-06-24T04:59:17.679Z,94.46
2018-06-24T05:00:17.592Z,94.65
2018-06-24T05:01:17.526Z,94.74
2018-06-24T05:02:17.402Z,96.17
2018-06-24T05:03:17.309Z,96.36
2018-06-24T05:04:17.217Z,97.03
2018-06-24T05:05:17.120Z,96.46
2018-06-24T05:06:17.061Z,97.22
2018-06-24T05:07:16.934Z,97.03
2018-06-24T05:08:16.845Z,97.03
2018-06-24T05:09:16.751Z,97.31
2018-06-24T05:10:16.660Z,97.13
2018-06-24T05:11:16.595Z,96.84
2018-06-24T05:12:16.468Z,97.22
2018-06-24T05:13:16.376Z,96.94
2018-06-24T05:14:16.288Z,97.22
2018-06-24T05:15:16.196Z,97.70
2018-06-24T05:16:16.134Z,97.79
2018-06-24T05:17:16.004Z,98.27
2018-06-24T05:18:15.917Z,98.55
2018-06-24T05:19:15.821Z,99.32
2018-06-24T05:20:15.728Z,99.13
2018-06-24T05:21:15.665Z,98.94
2018-06-24T05:22:15.544Z,99.08
2018-06-24T05:23:15.452Z,98.46
2018-06-24T05:24:15.357Z,99.65
2018-06-24T05:25:15.266Z,98.89
2018-06-24T05:26:15.203Z,99.18
2018-06-24T05:27:15.082Z,99.65
2018-06-24T05:28:14.987Z,99.99
2018-06-24T05:29:14.896Z,99.99
2018-06-24T05:30:14.801Z,99.99
2018-06-24T05:31:14.741Z,99.99
2018-06-24T05:32:14.614Z,99.99
2018-06-24T05:33:14.529Z,99.99
2018-06-24T05:34:14.435Z,99.99
2018-06-24T05:35:14.340Z,99.99
2018-06-24T05:36:14.280Z,99.99
2018-06-24T05:37:14.155Z,99.99
2018-06-24T05:38:14.154Z,99.99
2018-06-24T05:39:13.971Z,99.99
2018-06-24T05:40:13.875Z,99.99
2018-06-24T05:41:13.815Z,99.99
2018-06-24T05:42:13.690Z,99.99
2018-06-24T05:43:13.601Z,99.99
2018-06-24T05:44:13.523Z,99.99
2018-06-24T05:45:13.420Z,99.99
2018-06-24T05:46:13.363Z,99.99
2018-06-24T05:47:13.229Z,99.99
2018-06-24T05:48:13.144Z,99.99
2018-06-24T05:49:13.046Z,99.99
2018-06-24T05:50:12.958Z,99.99
2018-06-24T05:51:12.865Z,99.99
2018-06-24T05:52:12.918Z,99.99
2018-06-24T05:53:12.682Z,99.99
2018-06-24T05:54:12.634Z,99.99
2018-06-24T05:55:12.496Z,99.99
2018-06-24T05:56:12.403Z,99.99
2018-06-24T05:57:12.344Z,99.99
2018-06-24T05:58:12.221Z,99.99
2018-06-24T05:59:12.223Z,99.99
2018-06-24T06:00:12.032Z,99.99
2018-06-24T06:01:11.948Z,99.99
2018-06-24T06:02:11.886Z,99.99
2018-06-24T06:03:11.766Z,99.99
2018-06-24T06:04:11.671Z,99.99
2018-06-24T06:05:11.585Z,99.99
2018-06-24T06:06:11.580Z,99.99
2018-06-24T06:07:11.428Z,99.99
2018-06-24T06:08:11.307Z,99.99
2018-06-24T06:09:11.214Z,99.99
2018-06-24T06:10:11.209Z,99.99
2018-06-24T06:11:11.032Z,99.99
2018-06-24T06:12:10.985Z,99.99
2018-06-24T06:13:10.941Z,99.99
2018-06-24T06:14:10.758Z,99.99
2018-06-24T06:15:10.669Z,99.99
2018-06-24T06:16:10.653Z,99.99
2018-06-24T06:17:10.515Z,99.99
2018-06-24T06:18:10.395Z,99.99
2018-06-24T06:19:10.303Z,99.99
2018-06-24T06:20:10.306Z,99.99
2018-06-24T06:21:10.123Z,99.99
2018-06-24T06:22:10.067Z,99.99
2018-06-24T06:23:09.945Z,99.99
2018-06-24T06:24:09.852Z,99.99
2018-06-24T06:25:09.758Z,99.99
2018-06-24T06:26:09.671Z,99.99
2018-06-24T06:27:09.709Z,99.99
2018-06-24T06:28:09.491Z,99.99
2018-06-24T06:29:09.403Z,99.99
2018-06-24T06:30:09.323Z,99.99
2018-06-24T06:31:09.220Z,99.99
2018-06-24T06:32:09.158Z,99.99
2018-06-24T06:33:09.036Z,99.99
2018-06-24T06:34:09.038Z,99.99
2018-06-24T06:35:08.857Z,99.99
2018-06-24T06:36:08.768Z,99.99
2018-06-24T06:37:08.706Z,99.99
2018-06-24T06:38:08.587Z,99.99
2018-06-24T06:39:08.497Z,99.99
2018-06-24T06:40:08.405Z,99.99
2018-06-24T06:41:08.415Z,99.99
2018-06-24T06:42:08.255Z,99.99
2018-06-24T06:43:08.140Z,99.99
2018-06-24T06:44:08.049Z,99.99
2018-06-24T06:45:08.119Z,99.99
2018-06-24T06:46:07.866Z,99.99
2018-06-24T06:47:07.808Z,99.99
2018-06-24T06:48:07.784Z,99.99
2018-06-24T06:49:07.595Z,99.99
2018-06-24T06:50:07.511Z,99.99
2018-06-24T06:51:07.432Z,99.99
2018-06-24T06:52:07.356Z,99.99
2018-06-24T06:53:07.237Z,99.99
2018-06-24T06:54:07.146Z,99.99
2018-06-24T06:55:07.055Z,99.99
2018-06-24T06:56:06.964Z,99.99
2018-06-24T06:57:06.912Z,99.99
2018-06-24T06:58:06.788Z,99.99
2018-06-24T06:59:06.693Z,99.99
2018-06-24T07:00:06.657Z,99.99
2018-06-24T07:01:06.518Z,99.99
2018-06-24T07:02:06.462Z,99.99
2018-06-24T07:03:06.334Z,99.99
2018-06-24T07:04:06.246Z,99.99
2018-06-24T07:05:06.161Z,99.99
2018-06-24T07:06:06.068Z,99.99
2018-06-24T07:07:06.011Z,99.99
2018-06-24T07:08:05.886Z,99.99
2018-06-24T07:09:05.799Z,99.99
2018-06-24T07:10:05.707Z,99.99
2018-06-24T07:11:05.618Z,99.99
2018-06-24T07:12:05.557Z,99.99
2018-06-24T07:13:05.445Z,99.99
2018-06-24T07:14:05.363Z,99.99
2018-06-24T07:15:05.258Z,99.99
2018-06-24T07:16:05.168Z,99.99
2018-06-24T07:17:05.514Z,99.99
2018-06-24T07:18:04.992Z,99.99
2018-06-24T07:19:04.903Z,99.99
2018-06-24T07:20:04.809Z,99.99
2018-06-24T07:21:04.719Z,99.99
2018-06-24T07:22:04.649Z,99.99
2018-06-24T07:23:04.572Z,99.99
2018-06-24T07:24:04.458Z,99.99
2018-06-24T07:25:04.362Z,99.99
2018-06-24T07:26:04.272Z,99.99
2018-06-24T07:27:04.186Z,99.99
2018-06-24T07:28:04.131Z,99.99
2018-06-24T07:29:04.018Z,99.99
2018-06-24T07:30:03.914Z,99.99
2018-06-24T07:31:03.827Z,99.99
2018-06-24T07:32:03.739Z,99.99
2018-06-24T07:33:03.690Z,99.99
2018-06-24T07:34:03.560Z,99.99
2018-06-24T07:35:03.471Z,99.99
2018-06-24T07:36:03.387Z,99.99
2018-06-24T07:37:03.294Z,99.99
2018-06-24T07:38:03.236Z,99.99
2018-06-24T07:39:03.131Z,99.99
2018-06-24T07:40:03.025Z,99.99
2018-06-24T07:41:02.933Z,99.99
2018-06-24T07:42:02.851Z,99.99
2018-06-24T07:43:02.792Z,99.99
2018-06-24T07:44:02.667Z,99.99
2018-06-24T07:45:02.585Z,99.99
2018-06-24T07:46:02.495Z,99.99
2018-06-24T07:47:02.400Z,99.99
2018-06-24T07:48:02.344Z,99.99
2018-06-24T07:49:02.225Z,99.99
2018-06-24T07:50:02.135Z,99.99
2018-06-24T07:51:02.044Z,99.99
2018-06-24T07:52:01.955Z,99.99
2018-06-24T07:53:01.899Z,99.99
2018-06-24T07:54:01.780Z,99.99
2018-06-24T07:55:01.691Z,99.99
2018-06-24T07:56:01.600Z,99.99
2018-06-24T07:57:01.512Z,99.99
2018-06-24T07:58:01.460Z,99.99
2018-06-24T07:59:01.334Z,99.99
2018-06-24T08:00:01.248Z,99.99
2018-06-24T08:01:01.155Z,99.99
2018-06-24T08:02:01.068Z,99.99
2018-06-24T08:03:01.011Z,99.99
2018-06-24T08:04:00.889Z,99.99
2018-06-24T08:05:00.803Z,99.99
2018-06-24T08:06:00.712Z,99.99
2018-06-24T08:07:00.624Z,99.99
2018-06-24T08:08:00.569Z,99.99
2018-06-24T08:09:00.449Z,99.99
2018-06-24T08:10:00.359Z,99.99
2018-06-24T08:11:00.270Z,99.99
2018-06-24T08:12:00.182Z,99.99
2018-06-24T08:13:00.129Z,99.99
2018-06-24T08:14:00.011Z,99.99
2018-06-24T08:14:59.915Z,99.99
2018-06-24T08:15:59.830Z,99.99
2018-06-24T08:16:59.742Z,99.99
2018-06-24T08:17:59.685Z,99.99
2018-06-24T08:18:59.563Z,99.99
2018-06-24T08:19:59.474Z,99.99
2018-06-24T08:20:59.390Z,99.99
2018-06-24T08:21:59.298Z,99.99
2018-06-24T08:22:59.240Z,99.99
2018-06-24T08:23:59.118Z,99.99
2018-06-24T08:24:59.034Z,99.99
2018-06-24T08:25:58.946Z,99.99
2018-06-24T08:26:58.857Z,99.99
2018-06-24T08:27:58.805Z,99.99
2018-06-24T08:28:58.680Z,99.99
2018-06-24T08:29:58.590Z,99.99
2018-06-24T08:30:58.505Z,99.99
2018-06-24T08:31:58.416Z,99.99
2018-06-24T08:32:58.357Z,99.99
2018-06-24T08:33:58.238Z,99.99
2018-06-24T08:34:58.151Z,99.99
2018-06-24T08:35:58.063Z,99.99
2018-06-24T08:36:57.974Z,99.99
2018-06-24T08:37:57.916Z,99.99
2018-06-24T08:38:57.825Z,99.99
2018-06-24T08:39:57.800Z,99.99
2018-06-24T08:40:57.620Z,99.58
2018-06-24T08:41:57.532Z,99.99
2018-06-24T08:42:57.478Z,99.99
2018-06-24T08:43:57.357Z,99.87
2018-06-24T08:44:57.270Z,99.87
2018-06-24T08:45:57.182Z,99.87
2018-06-24T08:46:57.190Z,98.43
2018-06-24T08:47:57.008Z,98.09
2018-06-24T08:48:56.949Z,98.33
2018-06-24T08:49:56.831Z,96.89
2018-06-24T08:50:56.743Z,97.56
2018-06-24T08:51:56.655Z,98.05
2018-06-24T08:52:56.574Z,98.52
2018-06-24T08:53:56.609Z,94.50
2018-06-24T08:54:56.394Z,94.12
2018-06-24T08:55:56.307Z,94.40
2018-06-24T08:56:56.223Z,94.02
2018-06-24T08:57:56.133Z,96.03
2018-06-24T08:58:56.079Z,96.70
2018-06-24T08:59:55.957Z,98.47
2018-06-24T09:00:55.974Z,97.52
2018-06-24T09:01:55.783Z,95.98
2018-06-24T09:02:55.697Z,98.19
2018-06-24T09:03:55.638Z,98.38
2018-06-24T09:04:55.520Z,97.33
2018-06-24T09:05:55.436Z,96.18
2018-06-24T09:06:55.348Z,94.64
2018-06-24T09:07:55.353Z,94.98
2018-06-24T09:08:55.205Z,93.40
2018-06-24T09:09:55.085Z,92.63
2018-06-24T09:10:55.003Z,90.91
2018-06-24T09:11:54.914Z,90.81
2018-06-24T09:12:54.827Z,91.72
2018-06-24T09:13:54.813Z,91.72
2018-06-24T09:14:54.749Z,91.05
2018-06-24T09:15:54.627Z,89.09
2018-06-24T09:16:54.477Z,88.84
2018-06-24T09:17:54.392Z,89.13
2018-06-24T09:18:54.337Z,90.00
2018-06-24T09:19:54.218Z,90.23
2018-06-24T09:20:54.129Z,89.94
2018-06-24T09:21:54.158Z,89.08
2018-06-24T09:22:53.961Z,90.42
2018-06-24T09:23:53.901Z,87.60
2018-06-24T09:24:53.783Z,89.13
2018-06-24T09:25:53.700Z,88.94
2018-06-24T09:26:53.613Z,89.80
2018-06-24T09:27:53.525Z,87.88
2018-06-24T09:28:53.567Z,88.84
2018-06-24T09:29:53.354Z,90.00
2018-06-24T09:30:53.327Z,89.47
2018-06-24T09:31:53.178Z,89.13
2018-06-24T09:32:53.096Z,90.72
2018-06-24T09:33:53.036Z,93.40
2018-06-24T09:34:52.920Z,90.95
2018-06-24T09:35:52.934Z,88.99
2018-06-24T09:36:52.752Z,89.90
2018-06-24T09:37:52.663Z,89.37
2018-06-24T09:38:52.609Z,88.99
2018-06-24T09:39:52.489Z,89.76
2018-06-24T09:40:52.453Z,89.71
2018-06-24T09:41:52.318Z,90.95
2018-06-24T09:42:52.233Z,91.91
2018-06-24T09:43:52.180Z,92.44
2018-06-24T09:44:52.056Z,92.63
2018-06-24T09:45:51.974Z,93.44
2018-06-24T09:46:51.891Z,93.40
2018-06-24T09:47:51.926Z,92.54
2018-06-24T09:48:51.740Z,91.77
2018-06-24T09:49:51.623Z,90.43
2018-06-24T09:50:51.537Z,93.02
2018-06-24T09:51:51.449Z,91.96
2018-06-24T09:52:51.406Z,91.86
2018-06-24T09:53:51.310Z,94.45
2018-06-24T09:54:51.190Z,92.82
2018-06-24T09:55:51.102Z,94.31
2018-06-24T09:56:51.016Z,95.75
2018-06-24T09:57:50.934Z,93.98
2018-06-24T09:58:50.879Z,95.12
2018-06-24T09:59:50.755Z,94.74
2018-06-24T10:00:50.671Z,94.02
2018-06-24T10:01:50.582Z,94.84
2018-06-24T10:02:50.497Z,95.70
2018-06-24T10:03:50.447Z,92.82
2018-06-24T10:04:50.324Z,92.77
2018-06-24T10:05:50.233Z,93.26
2018-06-24T10:06:50.145Z,92.30
2018-06-24T10:07:50.060Z,91.77
2018-06-24T10:08:50.008Z,90.81
2018-06-24T10:09:49.887Z,90.57
2018-06-24T10:10:49.802Z,92.01
2018-06-24T10:11:49.719Z,91.43
2018-06-24T10:12:49.628Z,91.72
2018-06-24T10:13:49.571Z,92.20
2018-06-24T10:14:49.455Z,92.54
2018-06-24T10:15:49.366Z,91.86
2018-06-24T10:16:49.279Z,90.04
2018-06-24T10:17:49.192Z,89.13
2018-06-24T10:18:49.109Z,89.37
2018-06-24T10:19:49.051Z,89.13
2018-06-24T10:20:48.933Z,87.35
2018-06-24T10:21:48.845Z,88.41
2018-06-24T10:22:48.759Z,89.75
2018-06-24T10:23:48.675Z,90.19
2018-06-24T10:24:48.615Z,89.80
2018-06-24T10:25:48.498Z,90.00
2018-06-24T10:26:48.413Z,89.61
2018-06-24T10:27:48.324Z,89.80
2018-06-24T10:28:48.236Z,92.01
2018-06-24T10:29:48.183Z,89.85
2018-06-24T10:30:48.066Z,90.47
2018-06-24T10:31:47.977Z,90.81
2018-06-24T10:32:47.900Z,91.09
2018-06-24T10:33:47.808Z,89.94
2018-06-24T10:34:47.752Z,87.64
2018-06-24T10:35:47.643Z,88.17
2018-06-24T10:36:47.642Z,90.33
2018-06-24T10:37:47.458Z,90.47
2018-06-24T10:38:47.372Z,90.95
2018-06-24T10:39:47.317Z,91.63
2018-06-24T10:40:47.198Z,91.24
2018-06-24T10:41:47.115Z,91.82
2018-06-24T10:42:47.029Z,91.91
2018-06-24T10:43:47.035Z,89.90
2018-06-24T10:44:46.885Z,91.72
2018-06-24T10:45:46.765Z,90.86
2018-06-24T10:46:46.680Z,91.24
2018-06-24T10:47:46.590Z,89.32
2018-06-24T10:48:46.506Z,89.32
2018-06-24T10:49:46.449Z,89.08
2018-06-24T10:50:46.432Z,90.71
2018-06-24T10:51:46.244Z,91.48
2018-06-24T10:52:46.158Z,87.74
2018-06-24T10:53:46.071Z,88.02
2018-06-24T10:54:46.016Z,88.41
2018-06-24T10:55:45.897Z,86.68
2018-06-24T10:56:45.829Z,86.97
2018-06-24T10:57:45.831Z,87.41
2018-06-24T10:58:45.636Z,89.42
2018-06-24T10:59:45.581Z,90.86
2018-06-24T11:00:45.470Z,90.19
2018-06-24T11:01:45.377Z,89.32
2018-06-24T11:02:45.293Z,89.90
2018-06-24T11:03:45.203Z,91.14
2018-06-24T11:04:45.241Z,89.23
2018-06-24T11:05:45.032Z,89.90
2018-06-24T11:06:44.947Z,89.80
2018-06-24T11:07:44.856Z,88.12
2018-06-24T11:08:44.786Z,88.27
2018-06-24T11:09:44.776Z,89.71
2018-06-24T11:10:44.596Z,90.86
2018-06-24T11:11:44.602Z,90.19
2018-06-24T11:12:44.423Z,90.95
2018-06-24T11:13:44.338Z,88.56
2018-06-24T11:14:44.280Z,89.04
2018-06-24T11:15:44.163Z,89.18
2018-06-24T11:16:44.076Z,90.72
2018-06-24T11:17:43.994Z,90.00
2018-06-24T11:18:43.996Z,90.67
2018-06-24T11:19:43.861Z,90.23
2018-06-24T11:20:43.730Z,88.42
2018-06-24T11:21:43.699Z,87.55
2018-06-24T11:22:43.554Z,87.98
2018-06-24T11:23:43.466Z,89.80
2018-06-24T11:24:43.416Z,88.37
2018-06-24T11:25:43.388Z,88.98
2018-06-24T11:26:43.236Z,87.21
2018-06-24T11:27:43.121Z,88.60
2018-06-24T11:28:43.034Z,89.47
2018-06-24T11:29:42.977Z,87.07
2018-06-24T11:30:42.860Z,86.97
2018-06-24T11:31:42.770Z,88.98
2018-06-24T11:32:42.772Z,87.98
2018-06-24T11:33:42.596Z,87.64
2018-06-24T11:34:42.541Z,87.98
2018-06-24T11:35:42.422Z,89.04
2018-06-24T11:36:42.339Z,87.98
2018-06-24T11:37:42.252Z,88.08
2018-06-24T11:38:42.164Z,89.23
2018-06-24T11:39:42.200Z,90.04
2018-06-24T11:40:41.989Z,90.14
2018-06-24T11:41:41.903Z,89.65
2018-06-24T11:42:41.816Z,87.93
2018-06-24T11:43:41.730Z,87.35
2018-06-24T11:44:41.675Z,89.12
2018-06-24T11:45:41.552Z,87.68
2018-06-24T11:46:41.558Z,86.63
2018-06-24T11:47:41.381Z,88.84
2018-06-24T11:48:41.291Z,85.67
2018-06-24T11:49:41.238Z,85.05
2018-06-24T11:50:41.121Z,86.30
2018-06-24T11:51:41.055Z,86.88
2018-06-24T11:52:40.946Z,87.74
2018-06-24T11:53:40.948Z,87.41
2018-06-24T11:54:40.774Z,88.51
2018-06-24T11:55:40.717Z,89.08
2018-06-24T11:56:40.600Z,89.32
2018-06-24T11:57:40.514Z,89.71
2018-06-24T11:58:40.426Z,87.88
2018-06-24T11:59:40.341Z,89.42
2018-06-24T12:00:40.284Z,91.10
2018-06-24T12:01:40.165Z,90.43
2018-06-24T12:02:40.083Z,90.05
2018-06-24T12:03:39.992Z,89.18
2018-06-24T12:04:39.908Z,91.77
2018-06-24T12:05:39.850Z,92.92
2018-06-24T12:06:39.731Z,91.77
2018-06-24T12:07:39.642Z,90.43
2018-06-24T12:08:39.554Z,91.29
2018-06-24T12:09:39.475Z,90.23
2018-06-24T12:10:39.414Z,91.49
2018-06-24T12:11:39.295Z,92.73
2018-06-24T12:12:39.209Z,92.73
2018-06-24T12:13:39.122Z,92.39
2018-06-24T12:14:39.038Z,93.40
2018-06-24T12:15:38.978Z,92.73
2018-06-24T12:16:38.857Z,92.10
2018-06-24T12:17:38.772Z,92.39
2018-06-24T12:18:38.685Z,92.49
2018-06-24T12:19:38.597Z,91.53
2018-06-24T12:20:38.551Z,91.67
2018-06-24T12:21:38.423Z,91.91
2018-06-24T12:22:38.335Z,90.76
2018-06-24T12:23:38.245Z,91.43
2018-06-24T12:24:38.161Z,90.09
2018-06-24T12:25:38.104Z,90.95
2018-06-24T12:26:37.985Z,91.67
2018-06-24T12:27:37.898Z,92.15
2018-06-24T12:28:37.813Z,92.44
2018-06-24T12:29:37.726Z,92.35
2018-06-24T12:30:37.723Z,91.29
2018-06-24T12:31:37.551Z,91.63
2018-06-24T12:32:37.462Z,92.49
2018-06-24T12:33:37.376Z,93.40
2018-06-24T12:34:37.288Z,90.28
2018-06-24T12:35:37.233Z,90.57
2018-06-24T12:36:37.114Z,91.28
2018-06-24T12:37:37.027Z,90.67
2018-06-24T12:38:36.942Z,90.23
2018-06-24T12:39:36.850Z,90.90
2018-06-24T12:40:36.796Z,91.00
2018-06-24T12:41:36.676Z,90.09
2018-06-24T12:42:36.590Z,89.13
2018-06-24T12:43:36.501Z,91.72
2018-06-24T12:44:36.414Z,91.91
2018-06-24T12:45:36.361Z,90.86
2018-06-24T12:46:36.244Z,90.38
2018-06-24T12:47:36.190Z,90.38
2018-06-24T12:48:36.065Z,91.34
2018-06-24T12:49:35.980Z,90.76
2018-06-24T12:50:35.925Z,91.82
2018-06-24T12:51:35.803Z,91.91